createdAt,value
2022-09-12T00:02:35.689Z,99.90
2022-09-12T00:07:38.419Z,99.90
2022-09-12T00:12:41.383Z,99.90
2022-09-12T00:17:44.185Z,99.90
2022-09-12T00:22:47.138Z,99.90
2022-09-12T00:27:49.803Z,99.90
2022-09-12T00:32:54.929Z,99.90
2022-09-12T00:37:57.528Z,99.90
2022-09-12T00:43:00.307Z,99.90
2022-09-12T00:48:04.948Z,99.90
2022-09-12T00:53:09.060Z,99.90
2022-09-12T00:58:20.760Z,99.90
2022-09-12T01:03:24.475Z,99.90
2022-09-12T01:08:28.930Z,99.90
2022-09-12T01:13:34.725Z,99.90
2022-09-12T01:19:12.937Z,99.90
2022-09-12T01:24:37.248Z,99.90
2022-09-12T01:30:00.949Z,99.90
2022-09-12T01:35:27.685Z,99.90
2022-09-12T01:40:33.042Z,99.90
2022-09-12T01:45:46.307Z,99.90
2022-09-12T01:51:05.049Z,99.90
2022-09-12T01:56:13.522Z,99.90
2022-09-12T02:01:29.848Z,99.90
2022-09-12T02:06:47.534Z,99.90
2022-09-12T02:11:54.153Z,99.90
2022-09-12T02:17:04.898Z,99.90
2022-09-12T02:22:11.259Z,99.90
2022-09-12T02:27:18.514Z,99.90
2022-09-12T02:32:43.646Z,99.90
2022-09-12T02:38:05.670Z,99.90
2022-09-12T02:43:08.363Z,99.90
2022-09-12T02:48:34.817Z,99.90
2022-09-12T02:53:38.484Z,99.90
2022-09-12T02:58:41.444Z,99.90
2022-09-12T03:04:09.144Z,99.90
2022-09-12T03:09:11.882Z,99.90
2022-09-12T03:14:36.983Z,99.90
2022-09-12T03:20:02.584Z,99.90
2022-09-12T03:25:17.249Z,99.90
2022-09-12T03:30:19.935Z,99.90
2022-09-12T03:35:24.911Z,99.90
2022-09-12T03:40:27.597Z,99.90
2022-09-12T03:45:30.561Z,99.90
2022-09-12T03:50:34.125Z,99.90
2022-09-12T03:55:39.313Z,99.90
2022-09-12T04:00:43.325Z,99.90
2022-09-12T04:05:47.273Z,99.90
2022-09-12T04:10:49.896Z,99.90
2022-09-12T04:16:00.108Z,99.90
2022-09-12T04:21:08.286Z,99.90
2022-09-12T04:26:12.093Z,99.90
2022-09-12T04:31:18.271Z,99.90
2022-09-12T04:36:20.937Z,99.90
2022-09-12T04:41:26.577Z,99.90
2022-09-12T04:46:34.707Z,99.90
2022-09-12T04:51:39.762Z,99.90
2022-09-12T04:56:44.615Z,99.90
2022-09-12T05:01:47.961Z,99.90
2022-09-12T05:06:50.603Z,99.90
2022-09-12T05:12:08.924Z,99.90
2022-09-12T05:17:11.580Z,99.90
2022-09-12T05:22:14.492Z,99.90
2022-09-12T05:27:17.166Z,99.90
2022-09-12T05:32:19.827Z,99.90
2022-09-12T05:37:23.456Z,99.90
2022-09-12T05:42:26.206Z,99.90
2022-09-12T05:47:29.046Z,99.90
2022-09-12T05:52:32.984Z,99.90
2022-09-12T05:57:36.098Z,99.90
2022-09-12T06:02:39.053Z,99.90
2022-09-12T06:07:41.896Z,99.90
2022-09-12T06:12:44.813Z,99.90
2022-09-12T06:17:51.419Z,99.90
2022-09-12T06:22:54.604Z,99.90
2022-09-12T06:27:57.344Z,99.90
2022-09-12T06:33:00.124Z,99.90
2022-09-12T06:38:02.942Z,99.90
2022-09-12T06:43:05.923Z,99.90
2022-09-12T06:48:09.063Z,99.90
2022-09-12T06:53:11.753Z,99.90
2022-09-12T06:58:14.730Z,99.90
2022-09-12T07:03:17.693Z,99.90
2022-09-12T07:08:20.435Z,99.90
2022-09-12T07:13:23.163Z,99.90
2022-09-12T07:18:25.908Z,99.90
2022-09-12T07:23:29.639Z,99.90
2022-09-12T07:28:34.611Z,99.90
2022-09-12T07:33:38.660Z,99.90
2022-09-12T07:38:42.133Z,99.90
2022-09-12T07:43:45.819Z,99.90
2022-09-12T07:48:52.953Z,99.90
2022-09-12T07:53:56.795Z,99.90
2022-09-12T07:58:59.695Z,99.90
2022-09-12T08:04:03.819Z,99.90
2022-09-12T08:09:08.056Z,99.90
2022-09-12T08:14:10.998Z,99.90
2022-09-12T08:19:13.876Z,99.90
2022-09-12T08:24:16.719Z,99.90
2022-09-12T08:29:20.078Z,99.90
2022-09-12T08:34:22.840Z,99.90
2022-09-12T08:39:25.769Z,99.90
2022-09-12T08:44:43.862Z,99.90
2022-09-12T08:50:12.450Z,99.90
2022-09-12T08:55:24.451Z,99.90
2022-09-12T09:00:39.014Z,99.90
2022-09-12T09:06:00.399Z,99.90
2022-09-12T09:11:21.321Z,99.90
2022-09-12T09:16:30.961Z,99.90
2022-09-12T09:21:56.837Z,99.90
2022-09-12T09:27:14.249Z,99.90
2022-09-12T09:32:30.308Z,99.90
2022-09-12T09:37:45.378Z,99.90
2022-09-12T09:43:23.971Z,99.90
2022-09-12T09:48:34.460Z,99.90
2022-09-12T09:53:54.277Z,99.90
2022-09-12T09:58:57.240Z,98.30
2022-09-12T10:04:00.196Z,99.60
2022-09-12T10:09:36.499Z,99.90
2022-09-12T10:14:42.004Z,98.00
2022-09-12T10:19:52.641Z,90.40
2022-09-12T10:25:03.227Z,88.70
2022-09-12T10:30:19.281Z,91.80
2022-09-12T10:35:23.647Z,84.00
2022-09-12T10:40:33.039Z,84.50
2022-09-12T10:45:37.984Z,79.50
2022-09-12T10:50:42.796Z,70.60
2022-09-12T10:56:10.527Z,69.30
2022-09-12T11:01:38.447Z,61.40
2022-09-12T11:06:47.435Z,61.70
2022-09-12T11:12:08.428Z,62.50
2022-09-12T11:17:37.252Z,57.10
2022-09-12T11:22:55.097Z,58.70
2022-09-12T11:28:12.329Z,55.30
2022-09-12T11:33:29.399Z,60.10
2022-09-12T11:39:04.010Z,59.10
2022-09-12T11:44:46.463Z,54.30
2022-09-12T11:49:51.852Z,58.10
2022-09-12T11:55:06.191Z,59.90
2022-09-12T12:00:18.794Z,61.70
2022-09-12T12:05:29.073Z,54.70
2022-09-12T12:10:39.245Z,50.10
2022-09-12T12:15:57.958Z,53.00
2022-09-12T12:21:19.497Z,45.90
2022-09-12T12:26:43.203Z,46.50
2022-09-12T12:32:04.399Z,45.70
2022-09-12T12:37:19.652Z,48.00
2022-09-12T12:42:34.882Z,42.90
2022-09-12T12:47:46.541Z,45.30
2022-09-12T12:53:17.253Z,48.00
2022-09-12T12:58:33.553Z,45.30
2022-09-12T13:03:37.791Z,48.60
2022-09-12T13:08:54.013Z,48.80
2022-09-12T13:14:03.201Z,45.90
2022-09-12T13:19:29.553Z,44.00
2022-09-12T13:24:32.604Z,45.70
2022-09-12T13:29:35.324Z,43.30
2022-09-12T13:35:00.465Z,44.00
2022-09-12T13:40:24.409Z,41.90
2022-09-12T13:45:27.975Z,44.70
2022-09-12T13:50:58.404Z,43.60
2022-09-12T13:56:01.573Z,45.10
2022-09-12T14:01:10.484Z,45.10
2022-09-12T14:06:13.645Z,50.10
2022-09-12T14:11:27.784Z,50.20
2022-09-12T14:16:33.154Z,49.60
2022-09-12T14:21:37.333Z,50.40
2022-09-12T14:26:42.497Z,47.60
2022-09-12T14:31:45.654Z,46.30
2022-09-12T14:36:51.685Z,44.60
2022-09-12T14:42:05.055Z,44.40
2022-09-12T14:47:21.055Z,45.90
2022-09-12T14:52:35.253Z,47.10
2022-09-12T14:57:41.484Z,45.70
2022-09-12T15:02:45.046Z,48.60
2022-09-12T15:08:00.762Z,50.40
2022-09-12T15:13:06.494Z,48.80
2022-09-12T15:18:09.557Z,48.70
2022-09-12T15:23:34.638Z,50.30
2022-09-12T15:28:37.395Z,51.20
2022-09-12T15:33:40.176Z,52.40
2022-09-12T15:38:43.303Z,54.40
2022-09-12T15:43:47.016Z,55.90
2022-09-12T15:48:50.714Z,57.10
2022-09-12T15:53:53.917Z,59.50
2022-09-12T15:58:59.898Z,62.00
2022-09-12T16:04:04.243Z,65.90
2022-09-12T16:09:06.968Z,68.30
2022-09-12T16:14:14.071Z,77.80
2022-09-12T16:19:16.858Z,90.60
2022-09-12T16:24:19.684Z,99.90
2022-09-12T16:29:22.394Z,99.90
2022-09-12T16:34:25.084Z,99.90
2022-09-12T16:39:27.789Z,99.90
2022-09-12T16:44:30.998Z,99.90
2022-09-12T16:49:33.807Z,99.90
2022-09-12T16:54:36.674Z,99.90
2022-09-12T16:59:39.883Z,99.90
2022-09-12T17:04:42.813Z,99.90
2022-09-12T17:09:48.085Z,99.90
2022-09-12T17:14:50.904Z,99.90
2022-09-12T17:19:53.935Z,99.90
2022-09-12T17:24:56.695Z,99.90
2022-09-12T17:29:59.583Z,99.90
2022-09-12T17:35:02.334Z,99.90
2022-09-12T17:40:05.662Z,99.90
2022-09-12T17:45:09.003Z,99.90
2022-09-12T17:50:30.733Z,99.90
2022-09-12T17:55:38.253Z,99.90
2022-09-12T18:00:59.785Z,99.90
2022-09-12T18:06:02.608Z,99.90
2022-09-12T18:11:06.062Z,99.90
2022-09-12T18:16:11.283Z,99.90
2022-09-12T18:21:14.222Z,99.90
2022-09-12T18:26:17.094Z,99.90
2022-09-12T18:31:22.172Z,99.90
2022-09-12T18:36:25.088Z,99.90
2022-09-12T18:41:29.186Z,99.90
2022-09-12T18:46:33.918Z,99.90
2022-09-12T18:51:40.245Z,99.90
2022-09-12T18:56:44.232Z,99.90
2022-09-12T19:01:47.528Z,99.90
2022-09-12T19:06:51.083Z,99.90
2022-09-12T19:11:54.128Z,99.90
2022-09-12T19:16:57.244Z,99.90
2022-09-12T19:22:00.064Z,99.90
2022-09-12T19:27:02.864Z,99.90
2022-09-12T19:32:05.784Z,99.90
2022-09-12T19:37:08.633Z,99.90
2022-09-12T19:42:12.133Z,99.90
2022-09-12T19:47:14.943Z,99.90
2022-09-12T19:52:17.710Z,99.90
2022-09-12T19:57:20.454Z,99.90
2022-09-12T20:02:25.847Z,99.90
2022-09-12T20:07:29.584Z,99.90
2022-09-12T20:12:32.414Z,99.90
2022-09-12T20:17:36.422Z,99.90
2022-09-12T20:22:40.502Z,99.90
2022-09-12T20:27:43.534Z,99.90
2022-09-12T20:32:46.474Z,99.90
2022-09-12T20:37:49.766Z,99.90
2022-09-12T20:42:53.076Z,99.90
2022-09-12T20:47:55.844Z,99.90
2022-09-12T20:52:59.255Z,99.90
2022-09-12T20:58:01.942Z,99.90
2022-09-12T21:03:04.665Z,99.90
2022-09-12T21:08:07.432Z,99.90
2022-09-12T21:13:11.412Z,99.90
2022-09-12T21:18:14.749Z,99.90
2022-09-12T21:23:17.375Z,99.90
2022-09-12T21:28:20.520Z,99.90
2022-09-12T21:33:23.929Z,99.90
2022-09-12T21:38:26.741Z,99.90
2022-09-12T21:43:29.427Z,99.90
2022-09-12T21:48:32.337Z,99.90
2022-09-12T21:53:37.570Z,99.90
2022-09-12T21:58:40.450Z,99.90
2022-09-12T22:03:43.405Z,99.90
2022-09-12T22:08:46.039Z,99.90
2022-09-12T22:13:48.881Z,99.90
2022-09-12T22:18:52.868Z,99.90
2022-09-12T22:24:16.544Z,99.90
2022-09-12T22:29:20.216Z,99.90
2022-09-12T22:34:23.368Z,99.90
2022-09-12T22:39:26.520Z,99.90
2022-09-12T22:44:29.293Z,99.90
2022-09-12T22:49:32.427Z,99.90
2022-09-12T22:54:35.269Z,99.90
2022-09-12T22:59:38.351Z,99.90
2022-09-12T23:04:41.072Z,99.90
2022-09-12T23:09:44.258Z,99.90
2022-09-12T23:14:47.835Z,99.90
2022-09-12T23:19:50.521Z,99.90
2022-09-12T23:24:53.283Z,99.90
2022-09-12T23:29:56.022Z,99.90
2022-09-12T23:34:59.383Z,99.90
2022-09-12T23:40:03.239Z,99.90
2022-09-12T23:45:06.377Z,99.90
2022-09-12T23:50:09.484Z,99.90
2022-09-12T23:55:12.446Z,99.90
